createdAt,value
2019-05-09T00:01:15.300Z,4.58
2019-05-09T00:03:46.319Z,4.05
2019-05-09T00:06:15.718Z,4.47
2019-05-09T00:08:45.052Z,4.22
2019-05-09T00:11:14.892Z,4.72
2019-05-09T00:13:44.481Z,4.33
2019-05-09T00:16:14.667Z,4.30
2019-05-09T00:18:44.367Z,4.67
2019-05-09T00:21:18.386Z,4.17
2019-05-09T00:23:48.083Z,4.83
2019-05-09T00:26:17.405Z,4.63
2019-05-09T00:28:53.270Z,4.92
2019-05-09T00:31:35.701Z,4.40
2019-05-09T00:34:06.775Z,4.83
2019-05-09T00:36:36.287Z,5.30
2019-05-09T00:39:06.726Z,5.30
2019-05-09T00:41:36.350Z,4.53
2019-05-09T00:44:10.618Z,4.80
2019-05-09T00:46:47.281Z,4.60
2019-05-09T00:49:18.236Z,4.65
2019-05-09T00:51:47.726Z,4.97
2019-05-09T00:54:17.294Z,5.58
2019-05-09T00:56:46.739Z,4.10
2019-05-09T00:59:16.295Z,4.15
2019-05-09T01:01:45.588Z,4.35
2019-05-09T01:04:15.057Z,4.37
2019-05-09T01:06:44.644Z,3.72
2019-05-09T01:09:14.177Z,3.62
2019-05-09T01:11:44.092Z,4.20
2019-05-09T01:14:14.308Z,3.90
2019-05-09T01:16:44.142Z,3.98
2019-05-09T01:19:14.158Z,3.60
2019-05-09T01:21:43.931Z,4.05
2019-05-09T01:24:13.873Z,3.77
2019-05-09T01:26:43.608Z,3.90
2019-05-09T01:29:13.767Z,3.52
2019-05-09T01:31:43.689Z,4.12
2019-05-09T01:34:17.743Z,3.47
2019-05-09T01:37:06.730Z,4.37
2019-05-09T01:39:36.622Z,3.58
2019-05-09T01:42:06.775Z,3.67
2019-05-09T01:44:36.122Z,3.83
2019-05-09T01:47:05.409Z,3.92
2019-05-09T01:49:34.684Z,3.50
2019-05-09T01:52:03.871Z,3.98
2019-05-09T01:54:34.811Z,3.52
2019-05-09T01:57:03.999Z,4.08
2019-05-09T01:59:34.122Z,3.67
2019-05-09T02:02:08.118Z,3.65
2019-05-09T02:04:34.548Z,4.12
2019-05-09T02:07:04.331Z,3.83
2019-05-09T02:09:34.451Z,3.45
2019-05-09T02:12:04.127Z,4.05
2019-05-09T02:14:54.286Z,4.17
2019-05-09T02:17:54.887Z,4.03
2019-05-09T02:20:13.677Z,4.62
2019-05-09T02:22:43.471Z,3.90
2019-05-09T02:25:13.666Z,4.75
2019-05-09T02:27:43.653Z,4.53
2019-05-09T02:30:15.390Z,4.58
2019-05-09T02:32:45.322Z,4.85
2019-05-09T02:35:14.611Z,4.92
2019-05-09T02:37:43.800Z,4.45
2019-05-09T02:40:12.983Z,4.58
2019-05-09T02:42:42.144Z,4.10
2019-05-09T02:45:11.344Z,3.72
2019-05-09T02:47:40.512Z,4.12
2019-05-09T02:50:10.133Z,3.80
2019-05-09T02:52:40.094Z,4.37
2019-05-09T02:55:10.338Z,4.10
2019-05-09T02:57:39.865Z,4.05
2019-05-09T03:00:13.636Z,4.20
2019-05-09T03:02:53.188Z,3.80
2019-05-09T03:05:22.451Z,3.42
2019-05-09T03:07:51.794Z,3.42
2019-05-09T03:10:21.754Z,3.20
2019-05-09T03:12:51.030Z,3.35
2019-05-09T03:15:20.596Z,3.67
2019-05-09T03:17:50.070Z,3.37
2019-05-09T03:20:28.902Z,2.98
2019-05-09T03:22:58.588Z,3.40
2019-05-09T03:25:28.969Z,3.47
2019-05-09T03:30:39.733Z,3.37
2019-05-09T03:33:10.235Z,2.87
2019-05-09T03:35:39.897Z,3.02
2019-05-09T03:38:09.043Z,2.87
2019-05-09T03:40:41.425Z,2.85
2019-05-09T03:43:10.638Z,2.45
2019-05-09T03:45:44.139Z,2.30
2019-05-09T03:48:14.968Z,2.90
2019-05-09T03:50:44.143Z,2.90
2019-05-09T03:53:13.296Z,2.62
2019-05-09T03:55:42.622Z,2.35
2019-05-09T03:58:13.444Z,2.50
2019-05-09T04:00:42.671Z,2.83
2019-05-09T04:03:11.956Z,2.50
2019-05-09T04:05:54.443Z,2.87
2019-05-09T04:08:20.459Z,2.90
2019-05-09T04:10:51.238Z,3.08
2019-05-09T04:13:22.949Z,2.90
2019-05-09T04:15:52.232Z,2.90
2019-05-09T04:18:21.400Z,2.67
2019-05-09T04:20:50.629Z,2.30
2019-05-09T04:23:19.821Z,2.77
2019-05-09T04:25:50.639Z,2.75
2019-05-09T04:28:19.837Z,2.90
2019-05-09T04:30:49.003Z,2.27
2019-05-09T04:33:18.212Z,2.27
2019-05-09T04:35:47.624Z,2.50
2019-05-09T04:38:17.877Z,2.80
2019-05-09T04:40:48.809Z,2.45
2019-05-09T04:43:26.678Z,2.80
2019-05-09T04:45:53.350Z,2.70
2019-05-09T04:48:29.248Z,2.55
2019-05-09T04:50:59.649Z,3.08
2019-05-09T04:53:29.854Z,2.35
2019-05-09T04:56:08.023Z,2.50
2019-05-09T05:04:30.417Z,2.90
2019-05-09T05:09:37.979Z,2.92
2019-05-09T05:14:47.525Z,2.70
2019-05-09T05:17:14.983Z,2.47
2019-05-09T05:19:44.279Z,2.40
2019-05-09T05:22:38.549Z,2.83
2019-05-09T05:25:09.283Z,2.42
2019-05-09T05:27:38.336Z,2.65
2019-05-09T05:30:07.712Z,2.67
2019-05-09T05:32:38.712Z,2.60
2019-05-09T05:35:13.017Z,2.52
2019-05-09T05:37:42.545Z,2.40
2019-05-09T05:40:11.753Z,2.92
2019-05-09T05:42:43.498Z,2.62
2019-05-09T05:45:20.528Z,2.90
2019-05-09T05:48:00.344Z,2.67
2019-05-09T05:50:29.957Z,2.80
2019-05-09T05:56:02.889Z,2.70
2019-05-09T06:01:20.545Z,2.60
2019-05-09T06:03:49.876Z,3.17
2019-05-09T06:06:27.444Z,2.83
2019-05-09T06:11:38.485Z,3.00
2019-05-09T06:14:11.914Z,3.20
2019-05-09T06:16:44.867Z,2.55
2019-05-09T06:21:53.995Z,3.20
2019-05-09T06:24:24.123Z,3.40
2019-05-09T06:26:59.350Z,3.17
2019-05-09T06:29:31.971Z,2.75
2019-05-09T06:32:01.635Z,3.15
2019-05-09T06:34:32.004Z,2.77
2019-05-09T06:37:09.634Z,3.45
2019-05-09T06:39:38.793Z,2.75
2019-05-09T06:42:10.685Z,3.50
2019-05-09T06:44:55.477Z,3.00
2019-05-09T06:51:20.942Z,3.05
2019-05-09T06:53:50.759Z,2.70
2019-05-09T06:56:35.161Z,2.70
2019-05-09T07:54:25.758Z,2.42
2019-05-09T08:25:44.819Z,2.40
2019-05-09T08:28:14.074Z,2.52
2019-05-09T08:40:18.373Z,2.50
2019-05-09T08:42:48.318Z,2.87
2019-05-09T08:45:27.808Z,2.22
2019-05-09T08:47:48.634Z,2.22
2019-05-09T08:50:32.884Z,2.52
2019-05-09T08:53:02.134Z,2.50
2019-05-09T08:55:31.303Z,2.20
2019-05-09T08:58:00.565Z,2.08
2019-05-09T09:00:29.838Z,2.12
2019-05-09T09:02:59.043Z,1.90
2019-05-09T09:16:37.923Z,2.08
2019-05-09T09:19:08.880Z,2.40
2019-05-09T09:21:38.787Z,2.15
2019-05-09T09:26:38.289Z,2.27
2019-05-09T09:29:08.471Z,2.33
2019-05-09T09:31:37.967Z,2.30
2019-05-09T09:34:07.959Z,1.82
2019-05-09T09:36:41.343Z,1.82
2019-05-09T09:39:10.567Z,2.30
2019-05-09T09:41:43.834Z,1.70
2019-05-09T09:44:17.907Z,1.98
2019-05-09T09:46:53.742Z,1.90
2019-05-09T09:49:29.301Z,2.35
2019-05-09T09:51:59.564Z,2.50
2019-05-09T09:54:29.095Z,2.83
2019-05-09T09:56:58.842Z,2.67
2019-05-09T09:59:44.814Z,2.92
2019-05-09T10:02:16.398Z,2.60
2019-05-09T10:04:46.540Z,3.27
2019-05-09T10:07:19.113Z,2.55
2019-05-09T10:09:51.748Z,2.27
2019-05-09T10:12:21.381Z,2.08
2019-05-09T10:15:00.504Z,1.95
2019-05-09T10:17:38.649Z,1.85
2019-05-09T10:20:13.422Z,2.75
2019-05-09T10:22:46.577Z,2.55
2019-05-09T10:46:15.323Z,2.35
2019-05-09T10:48:44.070Z,2.27
2019-05-09T10:51:13.322Z,1.80
2019-05-09T10:53:42.490Z,2.52
2019-05-09T10:56:11.744Z,2.30
2019-05-09T10:58:40.914Z,2.92
2019-05-09T11:01:10.049Z,2.30
2019-05-09T11:03:39.241Z,2.27
2019-05-09T11:06:08.753Z,2.52
2019-05-09T11:08:38.236Z,2.30
2019-05-09T11:11:09.500Z,2.35
2019-05-09T11:13:38.980Z,1.67
2019-05-09T11:16:08.471Z,1.92
2019-05-09T11:18:39.499Z,1.92
2019-05-09T11:24:12.095Z,2.27
2019-05-09T11:29:52.182Z,2.90
2019-05-09T11:32:21.434Z,2.27
2019-05-09T11:34:50.924Z,2.37
2019-05-09T11:37:22.189Z,2.50
2019-05-09T11:40:11.109Z,2.40
2019-05-09T11:45:43.604Z,2.00
2019-05-09T11:48:18.780Z,1.90
2019-05-09T11:56:57.439Z,2.20
2019-05-09T12:02:08.938Z,2.72
2019-05-09T12:04:38.597Z,2.42
2019-05-09T12:07:08.062Z,2.43
2019-05-09T12:09:38.511Z,2.47
2019-05-09T12:12:08.164Z,2.37
2019-05-09T12:14:38.234Z,2.30
2019-05-09T12:17:08.358Z,2.83
2019-05-09T12:19:38.161Z,2.45
2019-05-09T12:39:37.735Z,1.85
2019-05-09T12:42:08.830Z,2.20
2019-05-09T12:47:21.331Z,2.60
2019-05-09T12:49:50.876Z,2.20
2019-05-09T12:54:58.279Z,2.45
2019-05-09T12:57:48.824Z,2.75
2019-05-09T13:00:03.033Z,2.90
2019-05-09T13:02:38.640Z,2.80
2019-05-09T13:07:43.307Z,3.00
2019-05-09T13:10:24.633Z,2.60
2019-05-09T13:13:08.317Z,2.87
2019-05-09T13:15:38.236Z,2.55
2019-05-09T13:18:21.987Z,3.30
2019-05-09T13:26:04.925Z,2.72
2019-05-09T13:28:37.643Z,2.45
2019-05-09T13:31:08.213Z,2.17
2019-05-09T13:33:38.503Z,2.62
2019-05-09T13:36:09.252Z,2.90
2019-05-09T13:41:08.738Z,2.58
2019-05-09T13:43:45.772Z,2.40
2019-05-09T13:46:09.097Z,2.60
2019-05-09T13:49:04.659Z,3.03
2019-05-09T13:51:09.498Z,2.60
2019-05-09T13:53:38.815Z,3.30
2019-05-09T13:56:08.524Z,3.10
2019-05-09T13:58:38.418Z,3.33
2019-05-09T14:01:07.943Z,3.17
2019-05-09T14:03:38.756Z,3.02
2019-05-09T14:06:08.984Z,4.78
2019-05-09T14:08:39.000Z,3.75
2019-05-09T14:11:08.593Z,4.47
2019-05-09T14:13:38.494Z,4.40
2019-05-09T14:16:19.915Z,3.55
2019-05-09T14:18:38.751Z,3.72
2019-05-09T14:21:08.126Z,4.05
2019-05-09T14:23:48.182Z,3.70
2019-05-09T14:26:09.493Z,4.10
2019-05-09T14:28:38.831Z,4.35
2019-05-09T14:31:07.975Z,4.78
2019-05-09T14:33:38.950Z,4.67
2019-05-09T14:36:08.388Z,4.10
2019-05-09T14:38:39.228Z,3.77
2019-05-09T14:41:08.505Z,3.98
2019-05-09T14:43:39.482Z,4.12
2019-05-09T14:46:08.621Z,4.10
2019-05-09T14:48:37.791Z,3.55
2019-05-09T14:51:07.646Z,3.67
2019-05-09T14:53:39.003Z,3.60
2019-05-09T14:56:08.773Z,3.12
2019-05-09T14:58:38.919Z,3.42
2019-05-09T15:01:08.586Z,3.77
2019-05-09T15:03:38.879Z,4.87
2019-05-09T15:06:08.257Z,6.22
2019-05-09T15:08:38.346Z,5.80
2019-05-09T15:11:09.839Z,5.45
2019-05-09T15:13:38.622Z,5.83
2019-05-09T15:16:08.837Z,5.30
2019-05-09T15:18:38.650Z,5.40
2019-05-09T15:21:08.021Z,5.92
2019-05-09T15:23:39.247Z,5.90
2019-05-09T15:26:08.136Z,6.05
2019-05-09T15:28:38.591Z,5.60
2019-05-09T15:31:08.833Z,6.62
2019-05-09T15:33:38.196Z,5.62
2019-05-09T15:36:09.187Z,4.92
2019-05-09T15:38:38.437Z,5.42
2019-05-09T15:41:12.064Z,3.80
2019-05-09T15:43:38.898Z,3.92
2019-05-09T15:46:09.723Z,3.80
2019-05-09T15:48:38.892Z,3.37
2019-05-09T15:51:08.058Z,3.92
2019-05-09T15:53:38.078Z,4.05
2019-05-09T15:56:07.977Z,3.83
2019-05-09T15:58:38.498Z,3.22
2019-05-09T16:03:38.217Z,3.90
2019-05-09T16:06:09.092Z,4.22
2019-05-09T16:08:38.523Z,4.90
2019-05-09T16:11:08.692Z,5.00
2019-05-09T16:13:37.961Z,4.62
2019-05-09T16:16:08.948Z,5.72
2019-05-09T16:18:38.171Z,5.83
2019-05-09T16:21:08.408Z,5.50
2019-05-09T16:23:38.061Z,6.08
2019-05-09T16:26:07.887Z,6.47
2019-05-09T16:28:37.950Z,5.95
2019-05-09T16:31:07.203Z,6.28
2019-05-09T16:33:36.367Z,6.97
2019-05-09T16:36:05.640Z,5.90
2019-05-09T16:38:43.442Z,7.05
2019-05-09T16:41:07.710Z,6.53
2019-05-09T16:43:39.194Z,5.12
2019-05-09T16:46:08.002Z,5.83
2019-05-09T16:48:37.248Z,6.45
2019-05-09T16:51:07.914Z,6.75
2019-05-09T16:53:37.171Z,7.22
2019-05-09T16:56:08.189Z,7.70
2019-05-09T16:58:37.923Z,7.03
2019-05-09T17:01:08.307Z,8.10
2019-05-09T17:03:37.577Z,6.55
2019-05-09T17:06:07.682Z,7.05
2019-05-09T17:08:38.559Z,6.12
2019-05-09T17:11:08.487Z,7.08
2019-05-09T17:13:37.694Z,10.20
2019-05-09T17:16:07.514Z,9.48
2019-05-09T17:18:38.198Z,9.30
2019-05-09T17:21:18.331Z,10.45
2019-05-09T17:23:40.167Z,10.38
2019-05-09T17:26:09.385Z,9.60
2019-05-09T17:28:38.551Z,9.95
2019-05-09T17:31:08.596Z,11.75
2019-05-09T17:33:38.073Z,8.90
2019-05-09T17:36:07.421Z,9.98
2019-05-09T17:38:38.328Z,9.08
2019-05-09T17:41:08.301Z,8.60
2019-05-09T17:43:38.391Z,7.83
2019-05-09T17:46:08.424Z,8.45
2019-05-09T17:48:38.594Z,8.48
2019-05-09T17:51:08.429Z,9.08
2019-05-09T17:53:37.847Z,8.28
2019-05-09T17:56:10.811Z,10.93
2019-05-09T17:58:38.148Z,8.33
2019-05-09T18:01:08.492Z,8.33
2019-05-09T18:03:38.438Z,8.88
2019-05-09T18:06:08.370Z,8.55
2019-05-09T18:08:37.816Z,8.28
2019-05-09T18:11:09.170Z,6.92
2019-05-09T18:13:38.575Z,7.87
2019-05-09T18:16:07.928Z,6.12
2019-05-09T18:18:38.911Z,6.30
2019-05-09T18:21:08.557Z,5.85
2019-05-09T18:23:38.761Z,5.30
2019-05-09T18:26:08.122Z,5.65
2019-05-09T18:28:38.545Z,5.47
2019-05-09T18:33:41.893Z,7.42
2019-05-09T18:36:11.047Z,5.65
2019-05-09T18:38:40.276Z,6.30
2019-05-09T18:41:10.269Z,6.75
2019-05-09T18:43:39.646Z,7.80
2019-05-09T18:46:08.906Z,7.62
2019-05-09T18:48:38.394Z,7.03
2019-05-09T18:51:07.650Z,7.40
2019-05-09T18:53:36.893Z,8.08
2019-05-09T18:56:06.137Z,8.68
2019-05-09T18:58:36.075Z,6.30
2019-05-09T19:01:05.673Z,7.05
2019-05-09T19:03:34.950Z,5.95
2019-05-09T19:06:04.133Z,5.60
2019-05-09T19:08:33.307Z,5.08
2019-05-09T19:11:02.566Z,4.28
2019-05-09T19:13:31.751Z,4.45
2019-05-09T19:16:02.570Z,3.45
2019-05-09T19:18:49.668Z,4.42
2019-05-09T19:21:20.515Z,5.80
2019-05-09T19:23:49.709Z,4.15
2019-05-09T19:26:36.956Z,4.40
2019-05-09T19:29:09.428Z,4.90
2019-05-09T19:31:38.960Z,4.08
2019-05-09T19:34:08.210Z,4.60
2019-05-09T19:36:37.547Z,4.12
2019-05-09T19:39:10.317Z,3.77
2019-05-09T19:41:39.510Z,3.60
2019-05-09T19:44:08.686Z,3.50
2019-05-09T19:46:37.954Z,3.15
2019-05-09T19:49:07.198Z,3.85
2019-05-09T19:51:36.534Z,3.67
2019-05-09T19:54:05.868Z,3.72
2019-05-09T19:56:35.071Z,3.25
2019-05-09T19:59:07.513Z,3.87
2019-05-09T20:01:35.253Z,3.62
2019-05-09T20:04:04.499Z,3.55
2019-05-09T20:06:33.710Z,3.62
2019-05-09T20:09:04.798Z,3.83
2019-05-09T20:11:50.144Z,3.70
2019-05-09T20:14:30.163Z,4.35
2019-05-09T20:16:59.614Z,4.85
2019-05-09T20:19:29.154Z,4.65
2019-05-09T20:21:58.624Z,4.60
2019-05-09T20:24:28.120Z,4.75
2019-05-09T20:26:57.590Z,5.08
2019-05-09T20:29:30.098Z,4.97
2019-05-09T20:31:58.021Z,5.92
2019-05-09T20:34:27.294Z,5.20
2019-05-09T20:36:56.545Z,5.45
2019-05-09T20:39:25.897Z,6.30
2019-05-09T20:41:55.259Z,6.37
2019-05-09T20:44:24.666Z,5.87
2019-05-09T20:46:54.100Z,7.45
2019-05-09T20:49:23.529Z,7.97
2019-05-09T20:51:52.928Z,8.85
2019-05-09T20:54:22.338Z,12.07
2019-05-09T20:56:51.745Z,10.13
2019-05-09T20:59:21.199Z,10.98
2019-05-09T21:01:50.589Z,10.93
2019-05-09T21:04:20.058Z,11.25
2019-05-09T21:06:49.471Z,11.88
2019-05-09T21:09:18.949Z,12.18
2019-05-09T21:11:48.306Z,11.38
2019-05-09T21:14:17.668Z,12.35
2019-05-09T21:16:47.070Z,11.40
2019-05-09T21:19:16.445Z,10.68
2019-05-09T21:21:45.830Z,11.05
2019-05-09T21:24:15.232Z,11.80
2019-05-09T21:26:44.585Z,11.73
2019-05-09T21:29:13.988Z,12.00
2019-05-09T21:31:43.447Z,11.38
2019-05-09T21:34:12.817Z,11.55
2019-05-09T21:36:41.997Z,8.90
2019-05-09T21:39:11.260Z,9.75
2019-05-09T21:41:40.473Z,9.53
2019-05-09T21:44:09.695Z,8.45
2019-05-09T21:46:38.881Z,8.30
2019-05-09T21:49:08.151Z,8.63
2019-05-09T21:51:37.351Z,7.55
2019-05-09T21:54:06.596Z,7.15
2019-05-09T21:56:35.785Z,6.60
2019-05-09T21:59:05.035Z,6.83
2019-05-09T22:01:34.324Z,6.62
2019-05-09T22:04:03.459Z,6.92
2019-05-09T22:06:32.678Z,6.70
2019-05-09T22:09:01.857Z,6.17
2019-05-09T22:11:31.061Z,6.83
2019-05-09T22:14:00.251Z,6.40
2019-05-09T22:16:29.449Z,7.10
2019-05-09T22:18:58.621Z,7.47
2019-05-09T22:21:27.881Z,7.00
2019-05-09T22:23:57.359Z,6.78
2019-05-09T22:26:26.686Z,6.83
2019-05-09T22:28:55.901Z,6.37
2019-05-09T22:31:25.118Z,6.22
2019-05-09T22:33:54.381Z,5.92
2019-05-09T22:36:23.545Z,5.92
2019-05-09T22:38:52.782Z,7.08
2019-05-09T22:41:21.952Z,6.80
2019-05-09T22:43:51.117Z,6.08
2019-05-09T22:46:20.358Z,6.65
2019-05-09T22:48:49.549Z,6.30
2019-05-09T22:51:18.722Z,5.67
2019-05-09T22:53:47.916Z,6.10
2019-05-09T22:56:17.114Z,6.35
2019-05-09T22:58:46.454Z,7.00
2019-05-09T23:01:15.776Z,6.70
2019-05-09T23:03:45.054Z,6.35
2019-05-09T23:06:14.280Z,5.83
2019-05-09T23:08:43.453Z,6.70
2019-05-09T23:11:12.656Z,5.08
2019-05-09T23:13:53.402Z,6.28
2019-05-09T23:16:26.986Z,5.75
2019-05-09T23:18:56.268Z,6.78
2019-05-09T23:21:27.136Z,5.92
2019-05-09T23:24:06.817Z,6.00
2019-05-09T23:26:35.993Z,6.47
2019-05-09T23:29:05.200Z,5.65
2019-05-09T23:31:36.066Z,6.60
2019-05-09T23:34:05.428Z,5.92
2019-05-09T23:36:34.622Z,5.42
2019-05-09T23:39:08.798Z,5.62
2019-05-09T23:41:37.996Z,5.92
2019-05-09T23:44:07.248Z,6.58
2019-05-09T23:46:36.442Z,6.87
2019-05-09T23:49:05.646Z,6.28
2019-05-09T23:51:47.611Z,7.30
2019-05-09T23:54:46.134Z,7.40
2019-05-09T23:57:25.653Z,7.12
